South Peacham, Vermont
Current Conditions -  °F | °C
As of 10:55 PM on Friday 28 Nov 2014 (Local Time) from KCDA Reporting Station
Light Snow Light Snow  
Wind Chill: 11°   Ceiling: 3100
Heat Index: 18°   Visibility: 5mi
Dew Point: 11°   Wind: 5mph
Humidity: 75%   Direction: 250°WSW
Pressure: 30.13"   Gusts: NA
Location:  44.3148°N, 72.091°W
Report Text: KCDA 290355Z AUTO 25004KT 5SM -SN OVC031 M08/M11 A3013 RMK AO2 T10781115
Loading
Personal Weather Stations






























Interactive Weather Map New forecast layout! Learn more

10-Day Weather Forecast

Advertisements
Track Severe Weather on mobile